createdAt,value
2022-08-19T00:01:29.036Z,100.00
2022-08-19T00:04:39.191Z,100.00
2022-08-19T00:07:49.474Z,100.00
2022-08-19T00:10:58.225Z,100.00
2022-08-19T00:14:08.303Z,100.00
2022-08-19T00:17:18.315Z,100.00
2022-08-19T00:20:26.932Z,100.00
2022-08-19T00:23:37.243Z,100.00
2022-08-19T00:26:47.180Z,100.00
2022-08-19T00:29:55.807Z,100.00
2022-08-19T00:33:10.053Z,100.00
2022-08-19T00:36:19.560Z,100.00
2022-08-19T00:39:28.092Z,100.00
2022-08-19T00:42:40.555Z,100.00
2022-08-19T00:46:15.734Z,100.00
2022-08-19T00:49:36.416Z,100.00
2022-08-19T00:52:51.160Z,100.00
2022-08-19T00:56:05.223Z,100.00
2022-08-19T00:59:14.501Z,100.00
2022-08-19T01:02:45.537Z,100.00
2022-08-19T01:05:57.720Z,100.00
2022-08-19T01:09:07.645Z,100.00
2022-08-19T01:12:17.081Z,100.00
2022-08-19T01:15:32.071Z,100.00
2022-08-19T01:18:43.932Z,100.00
2022-08-19T01:22:14.199Z,100.00
2022-08-19T01:25:31.326Z,100.00
2022-08-19T01:28:41.021Z,100.00
2022-08-19T01:31:54.477Z,100.00
2022-08-19T01:35:03.723Z,100.00
2022-08-19T01:38:25.834Z,100.00
2022-08-19T01:41:37.053Z,100.00
2022-08-19T01:44:45.251Z,100.00
2022-08-19T01:48:02.152Z,100.00
2022-08-19T01:51:12.780Z,100.00
2022-08-19T01:54:27.801Z,100.00
2022-08-19T01:57:38.622Z,100.00
2022-08-19T02:00:47.386Z,100.00
2022-08-19T02:03:56.885Z,100.00
2022-08-19T02:07:07.082Z,100.00
2022-08-19T02:10:21.988Z,100.00
2022-08-19T02:13:33.594Z,100.00
2022-08-19T02:16:41.850Z,100.00
2022-08-19T02:19:50.176Z,100.00
2022-08-19T02:22:58.428Z,100.00
2022-08-19T02:26:07.410Z,100.00
2022-08-19T02:29:17.956Z,100.00
2022-08-19T02:32:26.417Z,100.00
2022-08-19T02:35:34.736Z,100.00
2022-08-19T02:38:47.683Z,100.00
2022-08-19T02:42:03.400Z,100.00
2022-08-19T02:45:14.189Z,100.00
2022-08-19T02:48:25.498Z,100.00
2022-08-19T02:51:37.681Z,100.00
2022-08-19T02:54:46.931Z,100.00
2022-08-19T02:57:55.629Z,100.00
2022-08-19T03:01:09.872Z,100.00
2022-08-19T03:04:28.117Z,100.00
2022-08-19T03:07:37.757Z,100.00
2022-08-19T03:10:49.580Z,100.00
2022-08-19T03:13:59.458Z,100.00
2022-08-19T03:17:09.909Z,100.00
2022-08-19T03:20:18.595Z,100.00
2022-08-19T03:23:27.122Z,100.00
2022-08-19T03:26:36.044Z,100.00
2022-08-19T03:29:44.858Z,100.00
2022-08-19T03:32:57.328Z,100.00
2022-08-19T03:36:10.817Z,100.00
2022-08-19T03:39:19.128Z,100.00
2022-08-19T03:42:38.297Z,100.00
2022-08-19T03:46:05.138Z,100.00
2022-08-19T03:49:14.976Z,100.00
2022-08-19T03:52:23.418Z,100.00
2022-08-19T03:55:31.674Z,100.00
2022-08-19T03:58:40.759Z,100.00
2022-08-19T04:01:50.724Z,100.00
2022-08-19T04:05:00.303Z,100.00
2022-08-19T04:08:13.265Z,100.00
2022-08-19T04:11:43.221Z,100.00
2022-08-19T04:14:52.386Z,100.00
2022-08-19T04:18:00.622Z,100.00
2022-08-19T04:21:17.306Z,100.00
2022-08-19T04:24:25.814Z,100.00
2022-08-19T04:27:35.029Z,100.00
2022-08-19T04:30:46.276Z,100.00
2022-08-19T04:33:56.179Z,100.00
2022-08-19T04:37:13.708Z,100.00
2022-08-19T04:40:39.485Z,100.00
2022-08-19T04:43:49.818Z,100.00
2022-08-19T04:46:58.468Z,100.00
2022-08-19T04:50:12.802Z,100.00
2022-08-19T04:53:22.292Z,100.00
2022-08-19T04:56:31.229Z,100.00
2022-08-19T04:59:41.154Z,100.00
2022-08-19T05:02:50.249Z,100.00
2022-08-19T05:05:59.348Z,100.00
2022-08-19T05:09:08.856Z,100.00
2022-08-19T05:12:17.492Z,100.00
2022-08-19T05:15:25.729Z,100.00
2022-08-19T05:18:51.929Z,100.00
2022-08-19T05:22:19.295Z,100.00
2022-08-19T05:25:28.979Z,100.00
2022-08-19T05:28:37.193Z,100.00
2022-08-19T05:31:46.581Z,100.00
2022-08-19T05:34:55.527Z,100.00
2022-08-19T05:38:03.772Z,100.00
2022-08-19T05:41:16.191Z,100.00
2022-08-19T05:44:25.004Z,100.00
2022-08-19T05:47:33.176Z,100.00
2022-08-19T05:50:43.375Z,100.00
2022-08-19T05:53:52.944Z,100.00
2022-08-19T05:57:03.920Z,100.00
2022-08-19T06:00:14.882Z,100.00
2022-08-19T06:03:26.157Z,100.00
2022-08-19T06:06:35.674Z,100.00
2022-08-19T06:09:58.973Z,100.00
2022-08-19T06:13:12.588Z,100.00
2022-08-19T06:16:23.369Z,100.00
2022-08-19T06:19:33.342Z,100.00
2022-08-19T06:22:44.271Z,100.00
2022-08-19T06:25:52.586Z,100.00
2022-08-19T06:29:02.332Z,100.00
2022-08-19T06:32:10.691Z,100.00
2022-08-19T06:35:22.402Z,100.00
2022-08-19T06:38:30.792Z,100.00
2022-08-19T06:41:47.134Z,100.00
2022-08-19T06:45:04.089Z,100.00
2022-08-19T06:48:19.573Z,100.00
2022-08-19T06:54:55.570Z,100.00
2022-08-19T06:58:05.285Z,100.00
2022-08-19T07:01:15.373Z,100.00
2022-08-19T07:04:27.895Z,100.00
2022-08-19T07:07:36.605Z,100.00
2022-08-19T07:10:46.712Z,100.00
2022-08-19T07:13:55.753Z,100.00
2022-08-19T07:17:17.834Z,100.00
2022-08-19T07:20:28.702Z,100.00
2022-08-19T07:26:51.934Z,100.00
2022-08-19T07:30:00.767Z,100.00
2022-08-19T07:33:10.595Z,100.00
2022-08-19T07:36:23.178Z,100.00
2022-08-19T07:39:38.447Z,100.00
2022-08-19T07:42:46.714Z,100.00
2022-08-19T07:45:57.449Z,100.00
2022-08-19T07:49:19.294Z,100.00
2022-08-19T07:52:28.469Z,100.00
2022-08-19T07:55:40.460Z,100.00
2022-08-19T08:02:03.978Z,100.00
2022-08-19T08:05:35.586Z,100.00
2022-08-19T08:09:02.722Z,100.00
2022-08-19T08:12:34.131Z,100.00
2022-08-19T08:15:46.645Z,100.00
2022-08-19T08:18:56.624Z,100.00
2022-08-19T08:22:32.036Z,100.00
2022-08-19T08:25:43.118Z,100.00
2022-08-19T08:28:54.485Z,100.00
2022-08-19T08:32:14.934Z,100.00
2022-08-19T08:35:27.789Z,100.00
2022-08-19T08:38:40.495Z,100.00
2022-08-19T08:42:00.992Z,100.00
2022-08-19T08:45:20.637Z,100.00
2022-08-19T08:48:42.613Z,100.00
2022-08-19T08:52:00.005Z,100.00
2022-08-19T08:55:17.418Z,100.00
2022-08-19T08:58:43.078Z,100.00
2022-08-19T09:01:51.367Z,100.00
2022-08-19T09:05:00.232Z,100.00
2022-08-19T09:08:25.047Z,100.00
2022-08-19T09:11:52.520Z,100.00
2022-08-19T09:15:09.202Z,100.00
2022-08-19T09:18:19.663Z,100.00
2022-08-19T09:21:33.017Z,100.00
2022-08-19T09:24:42.583Z,100.00
2022-08-19T09:28:03.077Z,100.00
2022-08-19T09:31:17.417Z,100.00
2022-08-19T09:34:26.819Z,100.00
2022-08-19T09:37:36.325Z,100.00
2022-08-19T09:40:45.278Z,100.00
2022-08-19T09:43:58.493Z,96.58
2022-08-19T09:47:09.554Z,91.48
2022-08-19T09:50:19.180Z,90.01
2022-08-19T09:53:28.666Z,93.27
2022-08-19T09:56:37.249Z,91.13
2022-08-19T09:59:47.402Z,89.47
2022-08-19T10:02:56.389Z,90.29
2022-08-19T10:06:15.223Z,94.06
2022-08-19T10:09:34.478Z,92.22
2022-08-19T10:12:49.428Z,93.79
2022-08-19T10:16:07.720Z,92.17
2022-08-19T10:19:16.170Z,91.83
2022-08-19T10:22:36.759Z,91.15
2022-08-19T10:25:45.615Z,89.63
2022-08-19T10:28:58.433Z,91.07
2022-08-19T10:32:11.047Z,90.38
2022-08-19T10:35:21.737Z,90.79
2022-08-19T10:38:32.440Z,92.61
2022-08-19T10:41:44.601Z,95.37
2022-08-19T10:44:53.949Z,95.22
2022-08-19T10:48:04.094Z,90.74
2022-08-19T10:51:31.237Z,88.16
2022-08-19T10:54:56.885Z,89.67
2022-08-19T10:58:14.630Z,90.83
2022-08-19T11:01:23.439Z,92.69
2022-08-19T11:04:33.504Z,93.25
2022-08-19T11:07:43.080Z,97.00
2022-08-19T11:10:54.483Z,95.66
2022-08-19T11:14:02.829Z,91.88
2022-08-19T11:17:12.201Z,90.62
2022-08-19T11:20:21.834Z,86.12
2022-08-19T11:23:30.193Z,86.14
2022-08-19T11:26:42.479Z,84.25
2022-08-19T11:29:55.723Z,83.59
2022-08-19T11:33:05.999Z,86.34
2022-08-19T11:36:16.284Z,85.45
2022-08-19T11:39:25.410Z,87.08
2022-08-19T11:42:59.954Z,85.36
2022-08-19T11:46:10.805Z,82.87
2022-08-19T11:49:22.114Z,79.50
2022-08-19T11:52:31.706Z,80.91
2022-08-19T11:55:43.375Z,81.83
2022-08-19T11:58:54.203Z,80.62
2022-08-19T12:02:02.359Z,79.05
2022-08-19T12:05:12.885Z,78.24
2022-08-19T12:08:23.205Z,78.42
2022-08-19T12:11:34.563Z,76.46
2022-08-19T12:14:43.262Z,80.09
2022-08-19T12:17:51.456Z,82.16
2022-08-19T12:21:02.422Z,81.35
2022-08-19T12:24:12.252Z,79.93
2022-08-19T12:27:32.325Z,81.20
2022-08-19T12:30:51.124Z,79.29
2022-08-19T12:33:59.925Z,80.68
2022-08-19T12:37:09.430Z,85.60
2022-08-19T12:40:20.732Z,92.46
2022-08-19T12:43:31.330Z,95.24
2022-08-19T12:46:40.245Z,95.52
2022-08-19T12:49:55.502Z,97.12
2022-08-19T12:53:05.090Z,93.29
2022-08-19T12:56:17.497Z,94.03
2022-08-19T12:59:32.392Z,92.20
2022-08-19T13:02:51.147Z,92.40
2022-08-19T13:06:04.012Z,93.88
2022-08-19T13:09:12.881Z,93.26
2022-08-19T13:12:24.945Z,96.17
2022-08-19T13:15:37.187Z,93.77
2022-08-19T13:18:51.999Z,93.31
2022-08-19T13:22:00.729Z,93.64
2022-08-19T13:25:11.039Z,93.19
2022-08-19T13:28:20.814Z,97.56
2022-08-19T13:31:59.305Z,92.92
2022-08-19T13:35:08.346Z,92.49
2022-08-19T13:38:23.086Z,92.17
2022-08-19T13:41:31.924Z,86.94
2022-08-19T13:44:41.701Z,83.72
2022-08-19T13:47:53.685Z,85.32
2022-08-19T13:51:12.133Z,86.35
2022-08-19T13:54:23.596Z,87.02
2022-08-19T13:57:31.866Z,91.76
2022-08-19T14:00:47.274Z,91.28
2022-08-19T14:03:56.025Z,84.76
2022-08-19T14:07:07.233Z,84.25
2022-08-19T14:10:17.630Z,82.97
2022-08-19T14:13:26.624Z,83.52
2022-08-19T14:16:36.386Z,82.72
2022-08-19T14:19:48.166Z,84.61
2022-08-19T14:22:57.460Z,87.61
2022-08-19T14:26:07.617Z,87.76
2022-08-19T14:29:15.960Z,86.63
2022-08-19T14:32:25.781Z,87.14
2022-08-19T14:35:36.292Z,86.98
2022-08-19T14:38:45.342Z,85.44
2022-08-19T14:41:55.138Z,85.55
2022-08-19T14:45:03.484Z,84.94
2022-08-19T14:48:19.401Z,84.76
2022-08-19T14:51:29.287Z,88.44
2022-08-19T14:54:40.522Z,86.83
2022-08-19T14:57:48.999Z,84.85
2022-08-19T15:00:57.377Z,87.25
2022-08-19T15:04:07.475Z,85.46
2022-08-19T15:07:15.933Z,86.57
2022-08-19T15:10:25.544Z,83.86
2022-08-19T15:13:33.943Z,84.07
2022-08-19T15:16:43.645Z,86.71
2022-08-19T15:19:54.446Z,88.70
2022-08-19T15:23:03.106Z,90.09
2022-08-19T15:26:14.264Z,88.99
2022-08-19T15:29:26.549Z,87.22
2022-08-19T15:32:35.803Z,86.07
2022-08-19T15:35:46.480Z,88.56
2022-08-19T15:38:55.586Z,89.99
2022-08-19T15:42:04.140Z,88.60
2022-08-19T15:45:16.969Z,89.04
2022-08-19T15:48:26.555Z,92.56
2022-08-19T15:51:39.333Z,95.13
2022-08-19T15:54:47.774Z,96.81
2022-08-19T15:58:27.714Z,94.61
2022-08-19T16:01:55.386Z,88.79
2022-08-19T16:05:25.455Z,87.73
2022-08-19T16:08:48.812Z,88.43
2022-08-19T16:12:02.402Z,91.34
2022-08-19T16:15:15.087Z,92.11
2022-08-19T16:18:26.873Z,91.05
2022-08-19T16:21:39.622Z,88.73
2022-08-19T16:24:51.666Z,87.49
2022-08-19T16:28:08.023Z,84.46
2022-08-19T16:31:17.437Z,83.84
2022-08-19T16:34:27.111Z,84.88
2022-08-19T16:37:35.839Z,85.74
2022-08-19T16:40:49.207Z,88.68
2022-08-19T16:43:57.748Z,89.82
2022-08-19T16:47:06.814Z,88.09
2022-08-19T16:50:21.902Z,87.17
2022-08-19T16:53:38.511Z,89.47
2022-08-19T16:56:49.062Z,88.98
2022-08-19T16:59:59.810Z,91.03
2022-08-19T17:03:14.742Z,91.37
2022-08-19T17:06:27.563Z,90.69
2022-08-19T17:09:35.846Z,93.23
2022-08-19T17:12:47.740Z,93.41
2022-08-19T17:15:57.095Z,93.38
2022-08-19T17:19:08.680Z,93.09
2022-08-19T17:22:20.008Z,94.31
2022-08-19T17:25:31.489Z,97.11
2022-08-19T17:28:41.665Z,97.00
2022-08-19T17:31:51.632Z,98.85
2022-08-19T17:35:00.649Z,100.00
2022-08-19T17:38:11.183Z,100.00
2022-08-19T17:41:19.911Z,100.00
2022-08-19T17:44:33.205Z,100.00
2022-08-19T17:47:42.639Z,100.00
2022-08-19T17:50:53.910Z,100.00
2022-08-19T17:54:05.962Z,100.00
2022-08-19T17:57:16.312Z,100.00
2022-08-19T18:00:31.823Z,100.00
2022-08-19T18:03:41.837Z,100.00
2022-08-19T18:06:53.641Z,100.00
2022-08-19T18:10:02.842Z,100.00
2022-08-19T18:13:17.029Z,100.00
2022-08-19T18:16:29.537Z,100.00
2022-08-19T18:19:41.093Z,100.00
2022-08-19T18:22:52.715Z,100.00
2022-08-19T18:26:01.300Z,100.00
2022-08-19T18:29:10.662Z,100.00
2022-08-19T18:32:23.838Z,100.00
2022-08-19T18:35:33.800Z,100.00
2022-08-19T18:39:06.338Z,100.00
2022-08-19T18:42:36.859Z,100.00
2022-08-19T18:46:07.267Z,100.00
2022-08-19T18:49:23.604Z,100.00
2022-08-19T18:52:33.530Z,100.00
2022-08-19T18:55:42.329Z,100.00
2022-08-19T18:58:52.899Z,100.00
2022-08-19T19:02:02.863Z,100.00
2022-08-19T19:05:15.227Z,100.00
2022-08-19T19:08:26.791Z,100.00
2022-08-19T19:11:40.295Z,100.00
2022-08-19T19:14:52.002Z,100.00
2022-08-19T19:18:00.930Z,100.00
2022-08-19T19:21:15.572Z,100.00
2022-08-19T19:24:37.725Z,100.00
2022-08-19T19:27:51.397Z,100.00
2022-08-19T19:31:01.903Z,100.00
2022-08-19T19:34:29.765Z,100.00
2022-08-19T19:37:53.948Z,100.00
2022-08-19T19:41:02.737Z,100.00
2022-08-19T19:44:29.988Z,100.00
2022-08-19T19:47:39.687Z,100.00
2022-08-19T19:50:56.067Z,100.00
2022-08-19T19:54:06.773Z,100.00
2022-08-19T19:57:16.222Z,100.00
2022-08-19T20:00:26.246Z,100.00
2022-08-19T20:03:35.952Z,100.00
2022-08-19T20:06:45.818Z,100.00
2022-08-19T20:10:00.075Z,100.00
2022-08-19T20:13:10.731Z,100.00
2022-08-19T20:16:19.585Z,100.00
2022-08-19T20:19:36.422Z,100.00
2022-08-19T20:22:48.703Z,100.00
2022-08-19T20:25:58.908Z,100.00
2022-08-19T20:29:13.444Z,100.00
2022-08-19T20:32:37.728Z,100.00
2022-08-19T20:35:49.271Z,100.00
2022-08-19T20:38:58.195Z,100.00
2022-08-19T20:42:09.309Z,100.00
2022-08-19T20:45:33.675Z,100.00
2022-08-19T20:48:43.050Z,100.00
2022-08-19T20:51:54.736Z,100.00
2022-08-19T20:55:03.871Z,100.00
2022-08-19T20:58:17.795Z,100.00
2022-08-19T21:01:26.694Z,100.00
2022-08-19T21:04:35.196Z,100.00
2022-08-19T21:07:51.900Z,100.00
2022-08-19T21:11:03.677Z,100.00
2022-08-19T21:14:15.725Z,100.00
2022-08-19T21:17:25.816Z,100.00
2022-08-19T21:20:34.423Z,100.00
2022-08-19T21:23:44.186Z,100.00
2022-08-19T21:26:52.755Z,100.00
2022-08-19T21:30:04.655Z,100.00
2022-08-19T21:33:13.661Z,100.00
2022-08-19T21:36:22.957Z,100.00
2022-08-19T21:39:32.332Z,100.00
2022-08-19T21:42:41.170Z,100.00
2022-08-19T21:45:51.992Z,100.00
2022-08-19T21:49:00.800Z,100.00
2022-08-19T21:52:13.990Z,100.00
2022-08-19T21:55:52.818Z,100.00
2022-08-19T21:59:02.104Z,100.00
2022-08-19T22:02:21.676Z,100.00
2022-08-19T22:05:31.388Z,100.00
2022-08-19T22:08:41.403Z,100.00
2022-08-19T22:11:50.059Z,100.00
2022-08-19T22:15:01.898Z,100.00
2022-08-19T22:18:13.840Z,100.00
2022-08-19T22:21:40.374Z,100.00
2022-08-19T22:24:49.867Z,100.00
2022-08-19T22:28:00.620Z,100.00
2022-08-19T22:31:12.891Z,100.00
2022-08-19T22:34:23.404Z,100.00
2022-08-19T22:37:32.852Z,100.00
2022-08-19T22:40:48.619Z,100.00
2022-08-19T22:43:58.241Z,100.00
2022-08-19T22:47:07.943Z,100.00
2022-08-19T22:50:18.949Z,100.00
2022-08-19T22:53:27.530Z,100.00
2022-08-19T22:56:36.543Z,100.00
2022-08-19T22:59:45.355Z,100.00
2022-08-19T23:02:55.172Z,100.00
2022-08-19T23:06:05.382Z,100.00
2022-08-19T23:09:16.975Z,100.00
2022-08-19T23:12:33.559Z,100.00
2022-08-19T23:15:42.316Z,100.00
2022-08-19T23:18:51.011Z,100.00
2022-08-19T23:22:08.396Z,100.00
2022-08-19T23:25:23.692Z,100.00
2022-08-19T23:28:50.338Z,100.00
2022-08-19T23:31:59.187Z,100.00
2022-08-19T23:35:09.283Z,100.00
2022-08-19T23:38:22.754Z,100.00
2022-08-19T23:41:31.383Z,100.00
2022-08-19T23:44:52.377Z,100.00
2022-08-19T23:48:03.373Z,100.00
2022-08-19T23:51:16.499Z,100.00
2022-08-19T23:54:43.191Z,100.00
2022-08-19T23:57:53.116Z,100.00
